sensor_id;sensor_type;location;lat;lon;timestamp;P1;P2;P0
77692;PMS5003;66984;47.404;18.836;2023-06-14T00:00:34;25.25;24.00;14.00
77692;PMS5003;66984;47.404;18.836;2023-06-14T00:01:45;23.00;22.50;14.00
77692;PMS5003;66984;47.404;18.836;2023-06-14T00:02:50;24.00;23.00;15.00
77692;PMS5003;66984;47.404;18.836;2023-06-14T00:03:53;22.00;21.00;14.00
77692;PMS5003;66984;47.404;18.836;2023-06-14T00:04:57;23.75;21.75;13.00
77692;PMS5003;66984;47.404;18.836;2023-06-14T00:06:29;21.00;19.00;11.75
77692;PMS5003;66984;47.404;18.836;2023-06-14T00:07:38;19.00;19.00;9.00
77692;PMS5003;66984;47.404;18.836;2023-06-14T00:08:45;20.50;19.00;9.00
77692;PMS5003;66984;47.404;18.836;2023-06-14T00:09:49;20.00;18.50;8.00
77692;PMS5003;66984;47.404;18.836;2023-06-14T00:10:51;19.00;18.00;7.25
77692;PMS5003;66984;47.404;18.836;2023-06-14T00:12:02;17.25;17.00;7.00
77692;PMS5003;66984;47.404;18.836;2023-06-14T00:13:10;17.25;17.25;7.00
77692;PMS5003;66984;47.404;18.836;2023-06-14T00:14:16;16.25;15.25;7.00
77692;PMS5003;66984;47.404;18.836;2023-06-14T00:15:19;16.00;16.00;5.75
77692;PMS5003;66984;47.404;18.836;2023-06-14T00:16:23;17.00;14.00;8.00
77692;PMS5003;66984;47.404;18.836;2023-06-14T00:17:33;16.00;13.00;8.00
77692;PMS5003;66984;47.404;18.836;2023-06-14T00:18:36;14.25;14.00;6.00
77692;PMS5003;66984;47.404;18.836;2023-06-14T00:19:46;14.50;14.50;5.00
77692;PMS5003;66984;47.404;18.836;2023-06-14T00:20:49;12.25;12.25;7.25
77692;PMS5003;66984;47.404;18.836;2023-06-14T00:21:53;17.25;15.75;8.00
77692;PMS5003;66984;47.404;18.836;2023-06-14T00:22:57;17.00;14.00;5.00
77692;PMS5003;66984;47.404;18.836;2023-06-14T00:24:00;14.50;13.50;5.00
77692;PMS5003;66984;47.404;18.836;2023-06-14T00:25:10;16.00;15.00;7.00
77692;PMS5003;66984;47.404;18.836;2023-06-14T00:26:29;15.00;14.75;7.00
77692;PMS5003;66984;47.404;18.836;2023-06-14T00:27:32;16.00;16.00;6.00
77692;PMS5003;66984;47.404;18.836;2023-06-14T00:28:35;16.00;15.00;7.50
77692;PMS5003;66984;47.404;18.836;2023-06-14T00:29:38;13.00;13.00;7.00
77692;PMS5003;66984;47.404;18.836;2023-06-14T00:30:47;14.50;14.50;7.00
77692;PMS5003;66984;47.404;18.836;2023-06-14T00:31:50;12.00;12.00;7.00
77692;PMS5003;66984;47.404;18.836;2023-06-14T00:32:53;16.00;14.00;6.00
77692;PMS5003;66984;47.404;18.836;2023-06-14T00:33:57;16.50;12.50;7.00
77692;PMS5003;66984;47.404;18.836;2023-06-14T00:35:00;17.00;13.00;6.50
77692;PMS5003;66984;47.404;18.836;2023-06-14T00:36:10;17.50;15.50;7.00
77692;PMS5003;66984;47.404;18.836;2023-06-14T00:37:13;19.00;17.75;8.00
77692;PMS5003;66984;47.404;18.836;2023-06-14T00:38:16;17.25;17.00;7.00
77692;PMS5003;66984;47.404;18.836;2023-06-14T00:39:19;17.00;16.00;6.00
77692;PMS5003;66984;47.404;18.836;2023-06-14T00:40:22;17.75;17.00;6.00
77692;PMS5003;66984;47.404;18.836;2023-06-14T00:41:32;16.00;15.00;7.00
77692;PMS5003;66984;47.404;18.836;2023-06-14T00:42:35;13.75;13.00;5.50
77692;PMS5003;66984;47.404;18.836;2023-06-14T00:43:37;10.75;10.00;5.00
77692;PMS5003;66984;47.404;18.836;2023-06-14T00:44:40;12.00;10.00;5.00
77692;PMS5003;66984;47.404;18.836;2023-06-14T00:45:43;10.75;9.00;4.00
77692;PMS5003;66984;47.404;18.836;2023-06-14T00:46:53;11.00;9.00;4.75
77692;PMS5003;66984;47.404;18.836;2023-06-14T00:47:56;9.50;9.00;4.00
77692;PMS5003;66984;47.404;18.836;2023-06-14T00:48:59;9.00;9.00;4.00
77692;PMS5003;66984;47.404;18.836;2023-06-14T00:50:04;8.25;8.00;4.00
77692;PMS5003;66984;47.404;18.836;2023-06-14T00:51:09;8.25;8.00;4.00
77692;PMS5003;66984;47.404;18.836;2023-06-14T00:52:19;9.25;9.25;4.00
77692;PMS5003;66984;47.404;18.836;2023-06-14T00:53:23;8.00;8.00;5.00
77692;PMS5003;66984;47.404;18.836;2023-06-14T00:54:47;7.25;7.00;4.00
77692;PMS5003;66984;47.404;18.836;2023-06-14T00:55:52;8.75;8.50;3.50
77692;PMS5003;66984;47.404;18.836;2023-06-14T00:56:55;9.00;7.00;3.00
77692;PMS5003;66984;47.404;18.836;2023-06-14T00:58:05;8.50;7.50;4.00
77692;PMS5003;66984;47.404;18.836;2023-06-14T00:59:08;9.00;8.00;3.00
77692;PMS5003;66984;47.404;18.836;2023-06-14T01:00:20;8.00;7.50;3.75
77692;PMS5003;66984;47.404;18.836;2023-06-14T01:01:38;9.00;8.00;4.00
77692;PMS5003;66984;47.404;18.836;2023-06-14T01:02:48;9.00;8.75;3.00
77692;PMS5003;66984;47.404;18.836;2023-06-14T01:03:52;7.00;7.00;4.00
77692;PMS5003;66984;47.404;18.836;2023-06-14T01:04:55;8.50;8.50;3.00
77692;PMS5003;66984;47.404;18.836;2023-06-14T01:06:01;8.00;8.00;3.50
77692;PMS5003;66984;47.404;18.836;2023-06-14T01:07:43;9.00;8.00;4.00
77692;PMS5003;66984;47.404;18.836;2023-06-14T01:13:23;6.75;6.25;4.00
77692;PMS5003;66984;47.404;18.836;2023-06-14T01:14:34;9.00;9.00;3.00
77692;PMS5003;66984;47.404;18.836;2023-06-14T01:15:37;9.00;9.00;4.25
77692;PMS5003;66984;47.404;18.836;2023-06-14T01:16:48;9.50;9.50;5.00
77692;PMS5003;66984;47.404;18.836;2023-06-14T01:17:55;9.50;9.50;5.00
77692;PMS5003;66984;47.404;18.836;2023-06-14T01:19:05;10.00;10.00;5.00
77692;PMS5003;66984;47.404;18.836;2023-06-14T01:20:10;9.00;9.00;4.25
77692;PMS5003;66984;47.404;18.836;2023-06-14T01:21:20;7.00;7.00;4.00
77692;PMS5003;66984;47.404;18.836;2023-06-14T01:22:32;7.00;7.00;4.00
77692;PMS5003;66984;47.404;18.836;2023-06-14T01:23:55;7.00;7.00;4.00
77692;PMS5003;66984;47.404;18.836;2023-06-14T01:25:05;9.50;9.00;4.00
77692;PMS5003;66984;47.404;18.836;2023-06-14T01:26:09;8.75;8.00;4.00
77692;PMS5003;66984;47.404;18.836;2023-06-14T01:27:12;6.25;6.00;3.00
77692;PMS5003;66984;47.404;18.836;2023-06-14T01:28:25;7.00;6.25;3.00
77692;PMS5003;66984;47.404;18.836;2023-06-14T01:29:34;9.50;7.00;3.00
77692;PMS5003;66984;47.404;18.836;2023-06-14T01:30:39;6.50;6.50;3.25
77692;PMS5003;66984;47.404;18.836;2023-06-14T01:31:48;6.75;6.75;3.00
77692;PMS5003;66984;47.404;18.836;2023-06-14T01:32:52;7.75;7.00;2.75
77692;PMS5003;66984;47.404;18.836;2023-06-14T01:34:04;8.00;7.00;2.50
77692;PMS5003;66984;47.404;18.836;2023-06-14T01:35:07;8.00;6.75;3.00
77692;PMS5003;66984;47.404;18.836;2023-06-14T01:36:10;7.50;6.50;3.00
77692;PMS5003;66984;47.404;18.836;2023-06-14T01:37:14;8.75;8.00;2.75
77692;PMS5003;66984;47.404;18.836;2023-06-14T01:38:26;7.50;7.50;3.00
77692;PMS5003;66984;47.404;18.836;2023-06-14T01:39:30;9.50;8.00;2.00
77692;PMS5003;66984;47.404;18.836;2023-06-14T01:40:34;9.00;9.00;3.00
77692;PMS5003;66984;47.404;18.836;2023-06-14T01:41:57;9.00;7.00;4.00
77692;PMS5003;66984;47.404;18.836;2023-06-14T01:43:21;8.25;8.00;3.50
77692;PMS5003;66984;47.404;18.836;2023-06-14T01:44:34;8.00;8.00;3.00
77692;PMS5003;66984;47.404;18.836;2023-06-14T01:45:38;8.00;8.00;3.00
77692;PMS5003;66984;47.404;18.836;2023-06-14T01:46:44;7.75;7.75;3.25
77692;PMS5003;66984;47.404;18.836;2023-06-14T01:47:48;8.00;7.00;3.00
77692;PMS5003;66984;47.404;18.836;2023-06-14T01:48:58;6.00;6.00;3.00
77692;PMS5003;66984;47.404;18.836;2023-06-14T01:50:04;9.00;8.00;4.75
77692;PMS5003;66984;47.404;18.836;2023-06-14T01:51:08;10.00;9.25;4.00
77692;PMS5003;66984;47.404;18.836;2023-06-14T01:52:11;10.00;10.00;5.50
77692;PMS5003;66984;47.404;18.836;2023-06-14T01:53:14;10.50;10.00;5.00
77692;PMS5003;66984;47.404;18.836;2023-06-14T01:54:24;10.00;8.00;4.00
77692;PMS5003;66984;47.404;18.836;2023-06-14T01:55:28;9.00;9.00;4.00
77692;PMS5003;66984;47.404;18.836;2023-06-14T01:56:31;7.00;7.00;3.00
77692;PMS5003;66984;47.404;18.836;2023-06-14T01:57:35;9.00;9.00;4.00
77692;PMS5003;66984;47.404;18.836;2023-06-14T01:58:38;9.75;8.75;4.25
77692;PMS5003;66984;47.404;18.836;2023-06-14T01:59:48;12.25;10.25;5.00
77692;PMS5003;66984;47.404;18.836;2023-06-14T02:00:58;9.75;8.00;4.00
77692;PMS5003;66984;47.404;18.836;2023-06-14T02:02:16;8.75;8.00;4.00
77692;PMS5003;66984;47.404;18.836;2023-06-14T02:03:19;8.00;8.00;4.00
77692;PMS5003;66984;47.404;18.836;2023-06-14T02:04:22;10.00;7.75;4.00
77692;PMS5003;66984;47.404;18.836;2023-06-14T02:05:32;11.50;10.00;4.00
77692;PMS5003;66984;47.404;18.836;2023-06-14T02:06:37;12.00;10.00;4.25
77692;PMS5003;66984;47.404;18.836;2023-06-14T02:07:40;12.25;10.00;5.00
77692;PMS5003;66984;47.404;18.836;2023-06-14T02:08:43;11.75;10.00;4.00
77692;PMS5003;66984;47.404;18.836;2023-06-14T02:09:46;15.00;12.00;4.00
77692;PMS5003;66984;47.404;18.836;2023-06-14T02:10:56;15.00;12.00;4.00
77692;PMS5003;66984;47.404;18.836;2023-06-14T02:11:59;11.75;9.00;4.00
77692;PMS5003;66984;47.404;18.836;2023-06-14T02:13:02;10.00;10.00;4.00
77692;PMS5003;66984;47.404;18.836;2023-06-14T02:14:05;15.25;10.25;4.00
77692;PMS5003;66984;47.404;18.836;2023-06-14T02:15:29;14.00;9.50;5.00
77692;PMS5003;66984;47.404;18.836;2023-06-14T02:16:49;15.00;11.25;6.00
77692;PMS5003;66984;47.404;18.836;2023-06-14T02:18:02;15.00;12.00;4.00
77692;PMS5003;66984;47.404;18.836;2023-06-14T02:19:06;15.00;12.00;4.00
77692;PMS5003;66984;47.404;18.836;2023-06-14T02:20:09;13.00;10.00;5.00
77692;PMS5003;66984;47.404;18.836;2023-06-14T02:21:19;11.00;9.00;5.00
77692;PMS5003;66984;47.404;18.836;2023-06-14T02:22:22;11.00;9.75;4.00
77692;PMS5003;66984;47.404;18.836;2023-06-14T02:23:25;10.25;9.25;4.00
77692;PMS5003;66984;47.404;18.836;2023-06-14T02:24:28;14.75;10.00;5.00
77692;PMS5003;66984;47.404;18.836;2023-06-14T02:25:31;10.25;9.50;5.00
77692;PMS5003;66984;47.404;18.836;2023-06-14T02:26:41;13.50;12.50;5.00
77692;PMS5003;66984;47.404;18.836;2023-06-14T02:27:44;16.00;16.00;6.25
77692;PMS5003;66984;47.404;18.836;2023-06-14T02:28:47;16.00;14.00;4.00
77692;PMS5003;66984;47.404;18.836;2023-06-14T02:29:50;15.25;15.00;5.00
77692;PMS5003;66984;47.404;18.836;2023-06-14T02:30:53;15.00;14.00;6.00
77692;PMS5003;66984;47.404;18.836;2023-06-14T02:32:06;12.00;11.00;5.00
77692;PMS5003;66984;47.404;18.836;2023-06-14T02:33:10;15.00;12.00;5.00
77692;PMS5003;66984;47.404;18.836;2023-06-14T02:34:15;15.00;11.50;4.00
77692;PMS5003;66984;47.404;18.836;2023-06-14T02:35:22;14.75;11.00;4.00
77692;PMS5003;66984;47.404;18.836;2023-06-14T02:36:28;12.00;10.00;5.00
77692;PMS5003;66984;47.404;18.836;2023-06-14T02:37:41;12.00;9.00;4.00
77692;PMS5003;66984;47.404;18.836;2023-06-14T02:38:45;13.00;9.75;5.00
77692;PMS5003;66984;47.404;18.836;2023-06-14T02:39:49;11.00;9.00;6.00
77692;PMS5003;66984;47.404;18.836;2023-06-14T02:40:52;14.00;9.50;5.00
77692;PMS5003;66984;47.404;18.836;2023-06-14T02:41:55;13.00;10.00;5.00
77692;PMS5003;66984;47.404;18.836;2023-06-14T02:43:05;15.00;13.00;5.50
77692;PMS5003;66984;47.404;18.836;2023-06-14T02:44:09;12.00;11.00;5.00
77692;PMS5003;66984;47.404;18.836;2023-06-14T02:45:14;12.75;9.50;4.50
77692;PMS5003;66984;47.404;18.836;2023-06-14T02:46:17;14.75;10.75;5.00
77692;PMS5003;66984;47.404;18.836;2023-06-14T02:47:20;16.50;11.50;5.00
77692;PMS5003;66984;47.404;18.836;2023-06-14T02:48:30;14.25;12.00;3.00
77692;PMS5003;66984;47.404;18.836;2023-06-14T02:49:33;15.00;13.75;5.00
77692;PMS5003;66984;47.404;18.836;2023-06-14T02:50:36;16.00;14.00;5.00
77692;PMS5003;66984;47.404;18.836;2023-06-14T02:51:39;16.00;13.00;5.00
77692;PMS5003;66984;47.404;18.836;2023-06-14T02:52:42;17.00;16.00;5.00
77692;PMS5003;66984;47.404;18.836;2023-06-14T02:53:53;17.00;15.00;5.75
77692;PMS5003;66984;47.404;18.836;2023-06-14T02:54:56;16.00;14.25;5.00
77692;PMS5003;66984;47.404;18.836;2023-06-14T02:55:59;16.75;14.00;6.00
77692;PMS5003;66984;47.404;18.836;2023-06-14T02:57:02;15.00;13.00;5.00
77692;PMS5003;66984;47.404;18.836;2023-06-14T02:58:06;17.00;14.00;5.00
77692;PMS5003;66984;47.404;18.836;2023-06-14T02:59:15;17.00;15.00;5.25
77692;PMS5003;66984;47.404;18.836;2023-06-14T03:00:20;15.00;13.50;5.00
77692;PMS5003;66984;47.404;18.836;2023-06-14T03:01:29;12.50;10.75;4.00
77692;PMS5003;66984;47.404;18.836;2023-06-14T03:02:50;15.00;14.00;7.00
77692;PMS5003;66984;47.404;18.836;2023-06-14T03:04:01;12.00;12.00;6.00
77692;PMS5003;66984;47.404;18.836;2023-06-14T03:05:06;16.00;15.00;5.25
77692;PMS5003;66984;47.404;18.836;2023-06-14T03:06:09;14.25;13.25;5.00
77692;PMS5003;66984;47.404;18.836;2023-06-14T03:07:15;18.50;17.00;7.00
77692;PMS5003;66984;47.404;18.836;2023-06-14T03:08:22;16.25;16.25;5.00
77692;PMS5003;66984;47.404;18.836;2023-06-14T03:09:36;16.00;16.00;5.00
77692;PMS5003;66984;47.404;18.836;2023-06-14T03:10:40;15.75;15.75;4.50
77692;PMS5003;66984;47.404;18.836;2023-06-14T03:11:43;15.00;14.75;5.00
77692;PMS5003;66984;47.404;18.836;2023-06-14T03:13:02;15.00;13.75;5.00
77692;PMS5003;66984;47.404;18.836;2023-06-14T03:14:12;17.00;16.25;6.25
77692;PMS5003;66984;47.404;18.836;2023-06-14T03:15:16;16.00;15.00;6.00
77692;PMS5003;66984;47.404;18.836;2023-06-14T03:16:20;15.00;14.25;5.00
77692;PMS5003;66984;47.404;18.836;2023-06-14T03:17:24;15.25;14.00;5.00
77692;PMS5003;66984;47.404;18.836;2023-06-14T03:18:32;16.00;15.00;5.50
77692;PMS5003;66984;47.404;18.836;2023-06-14T03:19:44;16.00;14.00;7.00
77692;PMS5003;66984;47.404;18.836;2023-06-14T03:21:07;17.00;15.00;5.00
77692;PMS5003;66984;47.404;18.836;2023-06-14T03:22:11;16.50;15.50;4.00
77692;PMS5003;66984;47.404;18.836;2023-06-14T03:23:14;15.75;12.50;4.50
77692;PMS5003;66984;47.404;18.836;2023-06-14T03:24:17;17.00;13.00;6.00
77692;PMS5003;66984;47.404;18.836;2023-06-14T03:25:28;17.00;13.00;6.00
77692;PMS5003;66984;47.404;18.836;2023-06-14T03:26:33;17.25;15.00;7.00
77692;PMS5003;66984;47.404;18.836;2023-06-14T03:27:36;16.75;15.00;6.00
77692;PMS5003;66984;47.404;18.836;2023-06-14T03:28:40;17.75;16.00;6.00
77692;PMS5003;66984;47.404;18.836;2023-06-14T03:29:44;17.00;16.00;6.00
77692;PMS5003;66984;47.404;18.836;2023-06-14T03:30:54;18.00;17.00;6.00
77692;PMS5003;66984;47.404;18.836;2023-06-14T03:31:58;15.25;14.75;6.00
77692;PMS5003;66984;47.404;18.836;2023-06-14T03:33:03;18.00;16.00;6.75
77692;PMS5003;66984;47.404;18.836;2023-06-14T03:34:08;18.00;17.00;7.00
77692;PMS5003;66984;47.404;18.836;2023-06-14T03:35:11;18.25;15.00;7.00
77692;PMS5003;66984;47.404;18.836;2023-06-14T03:36:26;20.00;18.00;6.50
77692;PMS5003;66984;47.404;18.836;2023-06-14T03:37:30;16.00;16.00;5.25
77692;PMS5003;66984;47.404;18.836;2023-06-14T03:38:33;16.25;16.25;5.25
77692;PMS5003;66984;47.404;18.836;2023-06-14T03:39:37;16.00;16.00;6.00
77692;PMS5003;66984;47.404;18.836;2023-06-14T03:40:40;13.00;13.00;6.00
77692;PMS5003;66984;47.404;18.836;2023-06-14T03:41:50;17.00;15.75;6.00
77692;PMS5003;66984;47.404;18.836;2023-06-14T03:42:53;17.00;16.00;6.00
77692;PMS5003;66984;47.404;18.836;2023-06-14T03:43:57;15.00;15.00;5.00
77692;PMS5003;66984;47.404;18.836;2023-06-14T03:45:00;15.25;14.00;5.00
77692;PMS5003;66984;47.404;18.836;2023-06-14T03:46:23;15.00;14.00;4.00
77692;PMS5003;66984;47.404;18.836;2023-06-14T03:47:41;17.50;16.00;6.00
77692;PMS5003;66984;47.404;18.836;2023-06-14T03:49:04;16.00;14.00;6.00
77692;PMS5003;66984;47.404;18.836;2023-06-14T03:50:15;16.00;15.00;5.25
77692;PMS5003;66984;47.404;18.836;2023-06-14T03:51:40;17.00;15.50;6.00
77692;PMS5003;66984;47.404;18.836;2023-06-14T03:52:43;17.25;15.25;5.00
77692;PMS5003;66984;47.404;18.836;2023-06-14T03:53:46;17.50;16.00;6.00
77692;PMS5003;66984;47.404;18.836;2023-06-14T03:55:09;17.25;15.75;6.25
77692;PMS5003;66984;47.404;18.836;2023-06-14T03:56:16;18.00;17.00;7.00
77692;PMS5003;66984;47.404;18.836;2023-06-14T03:57:25;14.75;14.00;5.00
77692;PMS5003;66984;47.404;18.836;2023-06-14T03:58:28;15.75;14.50;5.00
77692;PMS5003;66984;47.404;18.836;2023-06-14T03:59:31;15.00;14.50;5.25
77692;PMS5003;66984;47.404;18.836;2023-06-14T04:00:34;16.00;15.75;5.00
77692;PMS5003;66984;47.404;18.836;2023-06-14T04:01:44;16.75;14.75;6.50
77692;PMS5003;66984;47.404;18.836;2023-06-14T04:03:01;15.50;13.25;6.00
77692;PMS5003;66984;47.404;18.836;2023-06-14T04:04:12;18.00;16.00;6.00
77692;PMS5003;66984;47.404;18.836;2023-06-14T04:05:15;18.50;15.75;6.00
77692;PMS5003;66984;47.404;18.836;2023-06-14T04:06:19;17.00;16.00;6.00
77692;PMS5003;66984;47.404;18.836;2023-06-14T04:07:22;18.50;17.50;6.00
77692;PMS5003;66984;47.404;18.836;2023-06-14T04:08:33;18.00;17.00;6.00
77692;PMS5003;66984;47.404;18.836;2023-06-14T04:09:36;18.00;15.00;5.25
77692;PMS5003;66984;47.404;18.836;2023-06-14T04:10:38;18.00;17.00;7.00
77692;PMS5003;66984;47.404;18.836;2023-06-14T04:11:41;17.00;16.00;6.00
77692;PMS5003;66984;47.404;18.836;2023-06-14T04:12:44;18.00;16.75;6.50
77692;PMS5003;66984;47.404;18.836;2023-06-14T04:13:54;19.25;17.00;5.00
77692;PMS5003;66984;47.404;18.836;2023-06-14T04:14:58;19.00;18.00;6.00
77692;PMS5003;66984;47.404;18.836;2023-06-14T04:16:20;17.00;15.75;5.00
77692;PMS5003;66984;47.404;18.836;2023-06-14T04:17:23;18.50;17.00;4.25
77692;PMS5003;66984;47.404;18.836;2023-06-14T04:18:33;16.00;15.00;5.50
77692;PMS5003;66984;47.404;18.836;2023-06-14T04:19:36;16.00;14.75;6.00
77692;PMS5003;66984;47.404;18.836;2023-06-14T04:20:39;17.25;16.00;5.25
77692;PMS5003;66984;47.404;18.836;2023-06-14T04:21:43;17.25;16.00;5.75
77692;PMS5003;66984;47.404;18.836;2023-06-14T04:22:46;19.00;17.00;6.00
77692;PMS5003;66984;47.404;18.836;2023-06-14T04:23:55;19.00;16.00;6.00
77692;PMS5003;66984;47.404;18.836;2023-06-14T04:25:02;17.00;15.00;5.75
77692;PMS5003;66984;47.404;18.836;2023-06-14T04:26:06;17.00;14.25;7.00
77692;PMS5003;66984;47.404;18.836;2023-06-14T04:27:08;17.00;15.00;6.00
77692;PMS5003;66984;47.404;18.836;2023-06-14T04:28:12;17.00;15.00;7.00
77692;PMS5003;66984;47.404;18.836;2023-06-14T04:29:24;16.00;13.25;5.00
77692;PMS5003;66984;47.404;18.836;2023-06-14T04:30:29;15.00;13.00;4.00
77692;PMS5003;66984;47.404;18.836;2023-06-14T04:31:34;16.25;14.50;5.00
77692;PMS5003;66984;47.404;18.836;2023-06-14T04:32:40;16.25;16.00;5.00
77692;PMS5003;66984;47.404;18.836;2023-06-14T04:33:42;16.75;16.75;6.50
77692;PMS5003;66984;47.404;18.836;2023-06-14T04:34:53;17.00;17.00;5.00
77692;PMS5003;66984;47.404;18.836;2023-06-14T04:35:56;16.00;15.00;5.00
77692;PMS5003;66984;47.404;18.836;2023-06-14T04:36:59;15.00;15.00;5.00
77692;PMS5003;66984;47.404;18.836;2023-06-14T04:38:03;15.25;15.25;6.75
77692;PMS5003;66984;47.404;18.836;2023-06-14T04:39:19;15.00;15.00;6.50
77692;PMS5003;66984;47.404;18.836;2023-06-14T04:40:23;15.00;14.50;6.00
77692;PMS5003;66984;47.404;18.836;2023-06-14T04:41:26;14.00;13.25;5.00
77692;PMS5003;66984;47.404;18.836;2023-06-14T04:42:33;12.50;12.50;5.25
77692;PMS5003;66984;47.404;18.836;2023-06-14T04:43:35;15.50;15.50;5.00
77692;PMS5003;66984;47.404;18.836;2023-06-14T04:44:46;17.00;16.00;5.25
77692;PMS5003;66984;47.404;18.836;2023-06-14T04:45:51;18.00;14.00;6.00
77692;PMS5003;66984;47.404;18.836;2023-06-14T04:46:57;18.00;17.00;7.00
77692;PMS5003;66984;47.404;18.836;2023-06-14T04:48:01;15.00;14.00;6.00
77692;PMS5003;66984;47.404;18.836;2023-06-14T04:49:04;15.75;13.00;6.00
77692;PMS5003;66984;47.404;18.836;2023-06-14T04:50:13;17.50;16.50;6.75
77692;PMS5003;66984;47.404;18.836;2023-06-14T04:51:19;18.75;17.75;7.25
77692;PMS5003;66984;47.404;18.836;2023-06-14T04:52:24;17.00;16.00;6.00
77692;PMS5003;66984;47.404;18.836;2023-06-14T04:53:29;17.00;17.00;6.25
77692;PMS5003;66984;47.404;18.836;2023-06-14T04:54:32;17.00;16.00;5.00
77692;PMS5003;66984;47.404;18.836;2023-06-14T04:55:42;16.50;14.00;4.00
77692;PMS5003;66984;47.404;18.836;2023-06-14T04:56:47;16.00;13.00;4.25
77692;PMS5003;66984;47.404;18.836;2023-06-14T04:57:52;17.00;13.25;5.25
77692;PMS5003;66984;47.404;18.836;2023-06-14T04:58:56;16.00;12.50;5.00
77692;PMS5003;66984;47.404;18.836;2023-06-14T05:00:05;16.00;12.75;5.00
77692;PMS5003;66984;47.404;18.836;2023-06-14T05:01:15;17.00;14.00;5.00
77692;PMS5003;66984;47.404;18.836;2023-06-14T05:02:25;14.75;12.00;4.50
77692;PMS5003;66984;47.404;18.836;2023-06-14T05:03:41;14.75;10.75;4.00
77692;PMS5003;66984;47.404;18.836;2023-06-14T05:04:47;15.00;11.00;5.00
77692;PMS5003;66984;47.404;18.836;2023-06-14T05:05:56;16.50;12.00;5.00
77692;PMS5003;66984;47.404;18.836;2023-06-14T05:06:59;17.00;14.00;4.00
77692;PMS5003;66984;47.404;18.836;2023-06-14T05:08:03;14.75;14.00;4.75
77692;PMS5003;66984;47.404;18.836;2023-06-14T05:09:07;17.00;15.00;6.00
77692;PMS5003;66984;47.404;18.836;2023-06-14T05:10:10;17.75;13.00;4.50
77692;PMS5003;66984;47.404;18.836;2023-06-14T05:11:19;15.00;11.50;4.00
77692;PMS5003;66984;47.404;18.836;2023-06-14T05:12:22;15.50;12.50;5.00
77692;PMS5003;66984;47.404;18.836;2023-06-14T05:13:25;16.50;14.00;6.00
77692;PMS5003;66984;47.404;18.836;2023-06-14T05:14:30;14.50;13.00;5.00
77692;PMS5003;66984;47.404;18.836;2023-06-14T05:15:33;15.00;14.00;6.00
77692;PMS5003;66984;47.404;18.836;2023-06-14T05:16:42;13.50;13.00;5.00
77692;PMS5003;66984;47.404;18.836;2023-06-14T05:17:45;16.00;15.00;5.00
77692;PMS5003;66984;47.404;18.836;2023-06-14T05:18:55;16.00;15.00;7.00
77692;PMS5003;66984;47.404;18.836;2023-06-14T05:19:59;16.75;14.00;6.00
77692;PMS5003;66984;47.404;18.836;2023-06-14T05:21:02;15.00;12.50;5.50
77692;PMS5003;66984;47.404;18.836;2023-06-14T05:22:13;13.00;11.50;5.00
77692;PMS5003;66984;47.404;18.836;2023-06-14T05:23:16;13.00;12.00;3.00
77692;PMS5003;66984;47.404;18.836;2023-06-14T05:24:19;14.75;13.75;6.00
77692;PMS5003;66984;47.404;18.836;2023-06-14T05:25:22;15.25;14.75;6.00
77692;PMS5003;66984;47.404;18.836;2023-06-14T05:26:26;14.00;14.00;7.00
77692;PMS5003;66984;47.404;18.836;2023-06-14T05:27:37;15.25;13.25;5.00
77692;PMS5003;66984;47.404;18.836;2023-06-14T05:28:40;13.00;13.00;4.00
77692;PMS5003;66984;47.404;18.836;2023-06-14T05:29:43;13.00;11.50;5.00
77692;PMS5003;66984;47.404;18.836;2023-06-14T05:30:46;11.50;10.50;5.00
77692;PMS5003;66984;47.404;18.836;2023-06-14T05:31:49;12.00;11.00;5.00
77692;PMS5003;66984;47.404;18.836;2023-06-14T05:32:58;13.50;12.00;6.00
77692;PMS5003;66984;47.404;18.836;2023-06-14T05:34:02;13.00;12.00;4.00
77692;PMS5003;66984;47.404;18.836;2023-06-14T05:35:05;14.50;14.50;5.00
77692;PMS5003;66984;47.404;18.836;2023-06-14T05:36:08;14.00;14.00;4.00
77692;PMS5003;66984;47.404;18.836;2023-06-14T05:37:11;13.00;12.00;3.00
77692;PMS5003;66984;47.404;18.836;2023-06-14T05:38:21;13.00;10.50;4.00
77692;PMS5003;66984;47.404;18.836;2023-06-14T05:39:24;13.25;12.00;5.00
77692;PMS5003;66984;47.404;18.836;2023-06-14T05:40:27;12.00;12.00;5.00
77692;PMS5003;66984;47.404;18.836;2023-06-14T05:41:30;14.75;14.75;5.75
77692;PMS5003;66984;47.404;18.836;2023-06-14T05:42:33;14.00;14.00;4.50
77692;PMS5003;66984;47.404;18.836;2023-06-14T05:43:43;13.00;13.00;5.00
77692;PMS5003;66984;47.404;18.836;2023-06-14T05:44:46;13.00;13.00;5.00
77692;PMS5003;66984;47.404;18.836;2023-06-14T05:45:49;14.50;13.00;5.00
77692;PMS5003;66984;47.404;18.836;2023-06-14T05:46:52;15.00;12.50;5.25
77692;PMS5003;66984;47.404;18.836;2023-06-14T05:47:55;15.00;10.00;5.00
77692;PMS5003;66984;47.404;18.836;2023-06-14T05:49:05;13.00;9.00;4.25
77692;PMS5003;66984;47.404;18.836;2023-06-14T05:50:08;13.75;9.25;4.75
77692;PMS5003;66984;47.404;18.836;2023-06-14T05:51:12;13.50;9.00;4.00
77692;PMS5003;66984;47.404;18.836;2023-06-14T05:52:15;11.25;10.00;4.00
77692;PMS5003;66984;47.404;18.836;2023-06-14T05:53:18;10.75;10.75;3.25
77692;PMS5003;66984;47.404;18.836;2023-06-14T05:54:27;11.25;10.00;3.00
77692;PMS5003;66984;47.404;18.836;2023-06-14T05:55:30;13.25;11.00;5.00
77692;PMS5003;66984;47.404;18.836;2023-06-14T05:56:33;14.50;10.00;5.25
77692;PMS5003;66984;47.404;18.836;2023-06-14T05:57:37;13.00;9.00;5.00
77692;PMS5003;66984;47.404;18.836;2023-06-14T05:58:40;11.00;9.00;4.00
77692;PMS5003;66984;47.404;18.836;2023-06-14T05:59:49;11.00;9.00;4.00
77692;PMS5003;66984;47.404;18.836;2023-06-14T06:00:53;12.00;10.00;3.50
77692;PMS5003;66984;47.404;18.836;2023-06-14T06:01:56;16.50;14.00;6.00
77692;PMS5003;66984;47.404;18.836;2023-06-14T06:03:06;14.75;11.00;5.00
77692;PMS5003;66984;47.404;18.836;2023-06-14T06:04:23;14.00;11.75;3.25
77692;PMS5003;66984;47.404;18.836;2023-06-14T06:05:32;15.50;14.00;4.00
77692;PMS5003;66984;47.404;18.836;2023-06-14T06:06:35;16.00;15.00;6.00
77692;PMS5003;66984;47.404;18.836;2023-06-14T06:07:39;14.75;13.75;5.00
77692;PMS5003;66984;47.404;18.836;2023-06-14T06:08:46;14.25;11.25;5.00
77692;PMS5003;66984;47.404;18.836;2023-06-14T06:09:49;14.00;11.25;4.00
77692;PMS5003;66984;47.404;18.836;2023-06-14T06:10:59;15.50;11.50;3.75
77692;PMS5003;66984;47.404;18.836;2023-06-14T06:12:05;15.00;11.50;5.00
77692;PMS5003;66984;47.404;18.836;2023-06-14T06:13:09;16.00;12.00;5.00
77692;PMS5003;66984;47.404;18.836;2023-06-14T06:14:12;15.00;12.75;4.00
77692;PMS5003;66984;47.404;18.836;2023-06-14T06:15:15;17.25;16.75;8.00
77692;PMS5003;66984;47.404;18.836;2023-06-14T06:16:24;18.00;17.00;7.00
77692;PMS5003;66984;47.404;18.836;2023-06-14T06:17:27;16.00;14.00;5.00
77692;PMS5003;66984;47.404;18.836;2023-06-14T06:18:50;13.00;13.00;4.00
77692;PMS5003;66984;47.404;18.836;2023-06-14T06:19:54;15.00;14.00;3.00
77692;PMS5003;66984;47.404;18.836;2023-06-14T06:21:04;13.25;11.00;4.50